sensor_id;sensor_type;location;lat;lon;timestamp;P1;durP1;ratioP1;P2;durP2;ratioP2
58553;SDS011;48119;53.218;6.576;2023-01-13T00:01:25;15.50;;;5.45;;
58553;SDS011;48119;53.218;6.576;2023-01-13T00:03:55;18.20;;;6.10;;
58553;SDS011;48119;53.218;6.576;2023-01-13T00:06:25;13.98;;;3.90;;
58553;SDS011;48119;53.218;6.576;2023-01-13T00:09:00;20.17;;;4.93;;
58553;SDS011;48119;53.218;6.576;2023-01-13T00:11:26;20.40;;;5.35;;
58553;SDS011;48119;53.218;6.576;2023-01-13T00:13:52;27.00;;;5.72;;
58553;SDS011;48119;53.218;6.576;2023-01-13T00:16:27;29.35;;;5.70;;
58553;SDS011;48119;53.218;6.576;2023-01-13T00:18:56;16.27;;;5.88;;
58553;SDS011;48119;53.218;6.576;2023-01-13T00:21:34;32.27;;;6.80;;
58553;SDS011;48119;53.218;6.576;2023-01-13T00:24:00;22.42;;;6.15;;
58553;SDS011;48119;53.218;6.576;2023-01-13T00:26:29;27.67;;;6.32;;
58553;SDS011;48119;53.218;6.576;2023-01-13T00:28:59;22.10;;;6.15;;
58553;SDS011;48119;53.218;6.576;2023-01-13T00:31:26;31.15;;;6.65;;
58553;SDS011;48119;53.218;6.576;2023-01-13T00:33:56;25.17;;;6.38;;
58553;SDS011;48119;53.218;6.576;2023-01-13T00:36:23;28.10;;;7.97;;
58553;SDS011;48119;53.218;6.576;2023-01-13T00:38:54;21.75;;;6.43;;
58553;SDS011;48119;53.218;6.576;2023-01-13T00:41:21;24.58;;;5.93;;
58553;SDS011;48119;53.218;6.576;2023-01-13T00:43:53;25.77;;;6.68;;
58553;SDS011;48119;53.218;6.576;2023-01-13T00:46:24;30.40;;;6.90;;
58553;SDS011;48119;53.218;6.576;2023-01-13T00:48:56;25.08;;;7.30;;
58553;SDS011;48119;53.218;6.576;2023-01-13T00:51:25;20.50;;;6.10;;
58553;SDS011;48119;53.218;6.576;2023-01-13T00:54:03;35.92;;;7.15;;
58553;SDS011;48119;53.218;6.576;2023-01-13T00:59:45;30.50;;;8.38;;
58553;SDS011;48119;53.218;6.576;2023-01-13T01:02:18;24.55;;;7.40;;
58553;SDS011;48119;53.218;6.576;2023-01-13T01:04:44;21.30;;;6.88;;
58553;SDS011;48119;53.218;6.576;2023-01-13T01:07:20;35.80;;;7.47;;
58553;SDS011;48119;53.218;6.576;2023-01-13T01:09:56;34.55;;;7.75;;
58553;SDS011;48119;53.218;6.576;2023-01-13T01:12:25;23.65;;;8.88;;
58553;SDS011;48119;53.218;6.576;2023-01-13T01:14:53;26.52;;;7.10;;
58553;SDS011;48119;53.218;6.576;2023-01-13T01:17:30;30.27;;;8.75;;
58553;SDS011;48119;53.218;6.576;2023-01-13T01:20:00;33.70;;;7.25;;
58553;SDS011;48119;53.218;6.576;2023-01-13T01:22:27;25.17;;;7.00;;
58553;SDS011;48119;53.218;6.576;2023-01-13T01:24:56;33.75;;;8.82;;
58553;SDS011;48119;53.218;6.576;2023-01-13T01:27:27;38.40;;;7.47;;
58553;SDS011;48119;53.218;6.576;2023-01-13T01:30:01;27.15;;;7.43;;
58553;SDS011;48119;53.218;6.576;2023-01-13T01:32:27;24.92;;;8.60;;
58553;SDS011;48119;53.218;6.576;2023-01-13T01:35:01;26.13;;;7.35;;
58553;SDS011;48119;53.218;6.576;2023-01-13T01:37:32;32.78;;;7.90;;
58553;SDS011;48119;53.218;6.576;2023-01-13T01:39:58;28.80;;;8.80;;
58553;SDS011;48119;53.218;6.576;2023-01-13T01:42:24;24.90;;;6.68;;
58553;SDS011;48119;53.218;6.576;2023-01-13T01:45:18;29.25;;;7.28;;
58553;SDS011;48119;53.218;6.576;2023-01-13T01:47:49;28.08;;;8.73;;
58553;SDS011;48119;53.218;6.576;2023-01-13T01:50:24;29.70;;;7.45;;
58553;SDS011;48119;53.218;6.576;2023-01-13T01:52:53;31.42;;;6.70;;
58553;SDS011;48119;53.218;6.576;2023-01-13T01:55:28;23.08;;;6.97;;
58553;SDS011;48119;53.218;6.576;2023-01-13T01:58:01;23.05;;;7.50;;
58553;SDS011;48119;53.218;6.576;2023-01-13T02:00:32;36.37;;;7.73;;
58553;SDS011;48119;53.218;6.576;2023-01-13T02:02:58;26.80;;;7.50;;
58553;SDS011;48119;53.218;6.576;2023-01-13T02:05:35;24.88;;;7.03;;
58553;SDS011;48119;53.218;6.576;2023-01-13T02:08:03;25.73;;;7.78;;
58553;SDS011;48119;53.218;6.576;2023-01-13T02:10:32;31.25;;;7.53;;
58553;SDS011;48119;53.218;6.576;2023-01-13T02:12:59;32.85;;;8.38;;
58553;SDS011;48119;53.218;6.576;2023-01-13T02:32:18;28.42;;;6.60;;
58553;SDS011;48119;53.218;6.576;2023-01-13T02:34:54;30.40;;;6.75;;
58553;SDS011;48119;53.218;6.576;2023-01-13T02:37:41;27.42;;;6.35;;
58553;SDS011;48119;53.218;6.576;2023-01-13T02:40:13;21.08;;;6.18;;
58553;SDS011;48119;53.218;6.576;2023-01-13T02:42:58;32.92;;;7.97;;
58553;SDS011;48119;53.218;6.576;2023-01-13T02:45:58;27.10;;;7.43;;
58553;SDS011;48119;53.218;6.576;2023-01-13T02:48:29;26.40;;;7.55;;
58553;SDS011;48119;53.218;6.576;2023-01-13T02:50:58;27.70;;;7.85;;
58553;SDS011;48119;53.218;6.576;2023-01-13T02:53:35;23.35;;;6.40;;
58553;SDS011;48119;53.218;6.576;2023-01-13T02:56:05;27.40;;;5.97;;
58553;SDS011;48119;53.218;6.576;2023-01-13T02:58:34;35.88;;;6.97;;
58553;SDS011;48119;53.218;6.576;2023-01-13T03:01:03;31.55;;;8.05;;
58553;SDS011;48119;53.218;6.576;2023-01-13T03:03:29;35.70;;;7.32;;
58553;SDS011;48119;53.218;6.576;2023-01-13T03:06:07;27.92;;;8.45;;
58553;SDS011;48119;53.218;6.576;2023-01-13T03:08:49;26.27;;;7.32;;
58553;SDS011;48119;53.218;6.576;2023-01-13T03:11:21;22.00;;;6.88;;
58553;SDS011;48119;53.218;6.576;2023-01-13T03:16:29;24.77;;;7.00;;
58553;SDS011;48119;53.218;6.576;2023-01-13T03:22:11;35.95;;;7.07;;
58553;SDS011;48119;53.218;6.576;2023-01-13T03:28:07;30.98;;;6.85;;
58553;SDS011;48119;53.218;6.576;2023-01-13T03:30:53;33.17;;;6.60;;
58553;SDS011;48119;53.218;6.576;2023-01-13T03:33:28;25.90;;;6.45;;
58553;SDS011;48119;53.218;6.576;2023-01-13T03:36:09;25.20;;;6.53;;
58553;SDS011;48119;53.218;6.576;2023-01-13T03:38:46;24.27;;;6.53;;
58553;SDS011;48119;53.218;6.576;2023-01-13T03:43:49;33.88;;;7.40;;
58553;SDS011;48119;53.218;6.576;2023-01-13T03:46:43;26.17;;;6.03;;
58553;SDS011;48119;53.218;6.576;2023-01-13T03:49:17;19.08;;;5.45;;
58553;SDS011;48119;53.218;6.576;2023-01-13T03:51:49;25.63;;;5.80;;
58553;SDS011;48119;53.218;6.576;2023-01-13T03:54:20;24.20;;;6.65;;
58553;SDS011;48119;53.218;6.576;2023-01-13T03:56:56;23.05;;;5.82;;
58553;SDS011;48119;53.218;6.576;2023-01-13T03:59:25;23.93;;;6.37;;
58553;SDS011;48119;53.218;6.576;2023-01-13T04:02:16;20.00;;;5.95;;
58553;SDS011;48119;53.218;6.576;2023-01-13T04:04:48;27.65;;;6.43;;
58553;SDS011;48119;53.218;6.576;2023-01-13T04:10:10;19.45;;;5.65;;
58553;SDS011;48119;53.218;6.576;2023-01-13T04:12:42;16.67;;;5.32;;
58553;SDS011;48119;53.218;6.576;2023-01-13T04:15:43;20.13;;;5.60;;
58553;SDS011;48119;53.218;6.576;2023-01-13T04:18:25;20.88;;;6.93;;
58553;SDS011;48119;53.218;6.576;2023-01-13T04:20:53;26.65;;;6.30;;
58553;SDS011;48119;53.218;6.576;2023-01-13T04:23:22;23.30;;;6.22;;
58553;SDS011;48119;53.218;6.576;2023-01-13T04:25:48;30.35;;;6.03;;
58553;SDS011;48119;53.218;6.576;2023-01-13T04:28:15;21.55;;;5.85;;
58553;SDS011;48119;53.218;6.576;2023-01-13T04:30:42;30.25;;;6.07;;
58553;SDS011;48119;53.218;6.576;2023-01-13T04:33:09;24.77;;;6.47;;
58553;SDS011;48119;53.218;6.576;2023-01-13T04:35:35;28.23;;;7.00;;
58553;SDS011;48119;53.218;6.576;2023-01-13T04:38:12;15.27;;;6.18;;
58553;SDS011;48119;53.218;6.576;2023-01-13T04:40:39;30.13;;;6.85;;
58553;SDS011;48119;53.218;6.576;2023-01-13T04:43:09;29.17;;;7.15;;
58553;SDS011;48119;53.218;6.576;2023-01-13T04:45:35;33.17;;;7.65;;
58553;SDS011;48119;53.218;6.576;2023-01-13T04:48:01;21.77;;;6.15;;
58553;SDS011;48119;53.218;6.576;2023-01-13T04:50:27;23.02;;;6.50;;
58553;SDS011;48119;53.218;6.576;2023-01-13T04:52:53;20.65;;;6.22;;
58553;SDS011;48119;53.218;6.576;2023-01-13T04:55:25;17.67;;;5.45;;
58553;SDS011;48119;53.218;6.576;2023-01-13T04:57:51;26.15;;;5.75;;
58553;SDS011;48119;53.218;6.576;2023-01-13T05:00:22;27.60;;;7.07;;
58553;SDS011;48119;53.218;6.576;2023-01-13T05:02:49;17.05;;;5.68;;
58553;SDS011;48119;53.218;6.576;2023-01-13T05:05:18;27.00;;;6.57;;
58553;SDS011;48119;53.218;6.576;2023-01-13T05:07:46;23.35;;;6.45;;
58553;SDS011;48119;53.218;6.576;2023-01-13T05:10:12;24.90;;;5.90;;
58553;SDS011;48119;53.218;6.576;2023-01-13T05:12:38;24.38;;;6.43;;
58553;SDS011;48119;53.218;6.576;2023-01-13T05:15:22;21.00;;;6.22;;
58553;SDS011;48119;53.218;6.576;2023-01-13T05:18:07;25.80;;;5.95;;
58553;SDS011;48119;53.218;6.576;2023-01-13T05:20:33;25.83;;;6.28;;
58553;SDS011;48119;53.218;6.576;2023-01-13T05:22:59;25.17;;;5.82;;
58553;SDS011;48119;53.218;6.576;2023-01-13T05:25:43;17.67;;;5.55;;
58553;SDS011;48119;53.218;6.576;2023-01-13T05:28:11;23.05;;;6.85;;
58553;SDS011;48119;53.218;6.576;2023-01-13T05:30:38;23.60;;;5.47;;
58553;SDS011;48119;53.218;6.576;2023-01-13T05:33:07;35.25;;;6.88;;
58553;SDS011;48119;53.218;6.576;2023-01-13T05:35:33;26.77;;;7.07;;
58553;SDS011;48119;53.218;6.576;2023-01-13T05:38:01;21.17;;;5.07;;
58553;SDS011;48119;53.218;6.576;2023-01-13T05:40:27;13.52;;;4.43;;
58553;SDS011;48119;53.218;6.576;2023-01-13T05:43:13;23.08;;;5.70;;
58553;SDS011;48119;53.218;6.576;2023-01-13T05:48:17;20.20;;;4.20;;
58553;SDS011;48119;53.218;6.576;2023-01-13T05:50:44;19.77;;;5.05;;
58553;SDS011;48119;53.218;6.576;2023-01-13T05:53:11;19.52;;;4.97;;
58553;SDS011;48119;53.218;6.576;2023-01-13T05:55:40;16.30;;;4.93;;
58553;SDS011;48119;53.218;6.576;2023-01-13T05:58:09;23.05;;;5.28;;
58553;SDS011;48119;53.218;6.576;2023-01-13T06:00:39;16.10;;;4.97;;
58553;SDS011;48119;53.218;6.576;2023-01-13T06:03:05;18.52;;;5.00;;
58553;SDS011;48119;53.218;6.576;2023-01-13T06:05:34;17.52;;;4.90;;
58553;SDS011;48119;53.218;6.576;2023-01-13T06:08:01;21.35;;;5.78;;
58553;SDS011;48119;53.218;6.576;2023-01-13T06:10:30;15.00;;;4.95;;
58553;SDS011;48119;53.218;6.576;2023-01-13T06:12:56;20.80;;;5.75;;
58553;SDS011;48119;53.218;6.576;2023-01-13T06:15:23;21.45;;;6.15;;
58553;SDS011;48119;53.218;6.576;2023-01-13T06:17:49;22.60;;;5.13;;
58553;SDS011;48119;53.218;6.576;2023-01-13T06:20:15;18.48;;;5.38;;
58553;SDS011;48119;53.218;6.576;2023-01-13T06:22:42;20.10;;;5.43;;
58553;SDS011;48119;53.218;6.576;2023-01-13T06:25:18;21.38;;;6.18;;
58553;SDS011;48119;53.218;6.576;2023-01-13T06:27:50;14.73;;;4.68;;
58553;SDS011;48119;53.218;6.576;2023-01-13T06:30:17;16.70;;;5.30;;
58553;SDS011;48119;53.218;6.576;2023-01-13T06:32:47;19.58;;;5.82;;
58553;SDS011;48119;53.218;6.576;2023-01-13T06:35:17;19.58;;;5.82;;
58553;SDS011;48119;53.218;6.576;2023-01-13T06:37:49;22.25;;;4.63;;
58553;SDS011;48119;53.218;6.576;2023-01-13T06:40:19;19.80;;;5.15;;
58553;SDS011;48119;53.218;6.576;2023-01-13T06:42:45;19.83;;;6.60;;
58553;SDS011;48119;53.218;6.576;2023-01-13T06:45:29;25.27;;;6.63;;
58553;SDS011;48119;53.218;6.576;2023-01-13T06:48:01;16.65;;;5.20;;
58553;SDS011;48119;53.218;6.576;2023-01-13T06:50:27;20.08;;;4.88;;
58553;SDS011;48119;53.218;6.576;2023-01-13T06:52:57;27.55;;;6.13;;
58553;SDS011;48119;53.218;6.576;2023-01-13T06:55:23;17.67;;;4.28;;
58553;SDS011;48119;53.218;6.576;2023-01-13T06:57:52;20.60;;;5.20;;
58553;SDS011;48119;53.218;6.576;2023-01-13T07:00:19;23.05;;;4.80;;
58553;SDS011;48119;53.218;6.576;2023-01-13T07:02:46;21.65;;;5.70;;
58553;SDS011;48119;53.218;6.576;2023-01-13T07:05:12;20.17;;;4.93;;
58553;SDS011;48119;53.218;6.576;2023-01-13T07:07:41;18.27;;;4.32;;
58553;SDS011;48119;53.218;6.576;2023-01-13T07:10:12;17.40;;;4.75;;
58553;SDS011;48119;53.218;6.576;2023-01-13T07:12:48;19.73;;;4.72;;
58553;SDS011;48119;53.218;6.576;2023-01-13T07:17:58;23.00;;;5.00;;
58553;SDS011;48119;53.218;6.576;2023-01-13T07:20:25;27.13;;;4.32;;
58553;SDS011;48119;53.218;6.576;2023-01-13T07:22:54;15.90;;;4.70;;
58553;SDS011;48119;53.218;6.576;2023-01-13T07:25:24;15.88;;;4.10;;
58553;SDS011;48119;53.218;6.576;2023-01-13T07:27:54;18.50;;;3.72;;
58553;SDS011;48119;53.218;6.576;2023-01-13T07:30:27;17.15;;;4.40;;
58553;SDS011;48119;53.218;6.576;2023-01-13T07:32:56;16.95;;;4.03;;
58553;SDS011;48119;53.218;6.576;2023-01-13T07:35:22;22.48;;;4.75;;
58553;SDS011;48119;53.218;6.576;2023-01-13T07:37:54;16.30;;;4.32;;
58553;SDS011;48119;53.218;6.576;2023-01-13T07:40:20;15.52;;;3.90;;
58553;SDS011;48119;53.218;6.576;2023-01-13T07:43:10;17.33;;;4.85;;
58553;SDS011;48119;53.218;6.576;2023-01-13T07:45:55;14.73;;;3.53;;
58553;SDS011;48119;53.218;6.576;2023-01-13T07:48:39;13.82;;;3.78;;
58553;SDS011;48119;53.218;6.576;2023-01-13T07:51:06;16.85;;;4.68;;
58553;SDS011;48119;53.218;6.576;2023-01-13T07:53:34;16.88;;;4.05;;
58553;SDS011;48119;53.218;6.576;2023-01-13T07:56:08;14.23;;;4.10;;
58553;SDS011;48119;53.218;6.576;2023-01-13T07:58:34;16.05;;;4.10;;
58553;SDS011;48119;53.218;6.576;2023-01-13T08:01:07;21.10;;;4.93;;
58553;SDS011;48119;53.218;6.576;2023-01-13T08:03:34;21.05;;;4.60;;
58553;SDS011;48119;53.218;6.576;2023-01-13T08:06:00;22.15;;;5.15;;
58553;SDS011;48119;53.218;6.576;2023-01-13T08:08:33;15.13;;;5.13;;
58553;SDS011;48119;53.218;6.576;2023-01-13T08:10:59;21.85;;;4.72;;
58553;SDS011;48119;53.218;6.576;2023-01-13T08:13:26;18.05;;;4.95;;
58553;SDS011;48119;53.218;6.576;2023-01-13T08:15:57;16.30;;;4.15;;
58553;SDS011;48119;53.218;6.576;2023-01-13T08:18:24;21.88;;;5.50;;
58553;SDS011;48119;53.218;6.576;2023-01-13T08:20:50;22.75;;;5.32;;
58553;SDS011;48119;53.218;6.576;2023-01-13T08:23:20;17.17;;;4.97;;
58553;SDS011;48119;53.218;6.576;2023-01-13T08:25:47;19.13;;;5.22;;
58553;SDS011;48119;53.218;6.576;2023-01-13T08:28:13;21.98;;;4.30;;
58553;SDS011;48119;53.218;6.576;2023-01-13T08:30:42;22.73;;;5.03;;
58553;SDS011;48119;53.218;6.576;2023-01-13T08:33:10;18.00;;;4.88;;
58553;SDS011;48119;53.218;6.576;2023-01-13T08:35:42;20.67;;;5.72;;
58553;SDS011;48119;53.218;6.576;2023-01-13T08:38:08;18.17;;;5.50;;
58553;SDS011;48119;53.218;6.576;2023-01-13T08:40:34;16.67;;;5.35;;
58553;SDS011;48119;53.218;6.576;2023-01-13T08:43:01;21.40;;;5.05;;
58553;SDS011;48119;53.218;6.576;2023-01-13T08:45:27;19.58;;;6.18;;
58553;SDS011;48119;53.218;6.576;2023-01-13T08:47:53;21.05;;;6.70;;
58553;SDS011;48119;53.218;6.576;2023-01-13T08:50:19;18.48;;;4.50;;
58553;SDS011;48119;53.218;6.576;2023-01-13T08:52:45;19.67;;;5.63;;
58553;SDS011;48119;53.218;6.576;2023-01-13T08:55:10;16.95;;;5.30;;
58553;SDS011;48119;53.218;6.576;2023-01-13T08:57:36;21.02;;;4.70;;
58553;SDS011;48119;53.218;6.576;2023-01-13T09:00:03;22.80;;;4.80;;
58553;SDS011;48119;53.218;6.576;2023-01-13T09:02:32;21.77;;;5.97;;
58553;SDS011;48119;53.218;6.576;2023-01-13T09:04:59;19.33;;;6.78;;
58553;SDS011;48119;53.218;6.576;2023-01-13T09:07:28;18.42;;;4.95;;
58553;SDS011;48119;53.218;6.576;2023-01-13T09:09:54;21.88;;;5.00;;
58553;SDS011;48119;53.218;6.576;2023-01-13T09:12:21;18.67;;;4.47;;
58553;SDS011;48119;53.218;6.576;2023-01-13T09:15:05;24.23;;;5.57;;
58553;SDS011;48119;53.218;6.576;2023-01-13T09:17:31;19.83;;;5.07;;
58553;SDS011;48119;53.218;6.576;2023-01-13T09:19:57;20.23;;;5.78;;
58553;SDS011;48119;53.218;6.576;2023-01-13T09:22:24;13.35;;;4.55;;
58553;SDS011;48119;53.218;6.576;2023-01-13T09:24:51;19.98;;;4.50;;
58553;SDS011;48119;53.218;6.576;2023-01-13T09:27:18;24.92;;;5.25;;
58553;SDS011;48119;53.218;6.576;2023-01-13T09:29:48;14.13;;;4.03;;
58553;SDS011;48119;53.218;6.576;2023-01-13T09:32:14;15.88;;;4.43;;
58553;SDS011;48119;53.218;6.576;2023-01-13T09:34:40;15.43;;;4.10;;
58553;SDS011;48119;53.218;6.576;2023-01-13T09:37:31;15.95;;;3.85;;
58553;SDS011;48119;53.218;6.576;2023-01-13T09:40:04;18.80;;;4.57;;
58553;SDS011;48119;53.218;6.576;2023-01-13T09:48:56;24.60;;;5.50;;
58553;SDS011;48119;53.218;6.576;2023-01-13T09:51:44;19.25;;;4.28;;
58553;SDS011;48119;53.218;6.576;2023-01-13T09:54:42;15.27;;;4.40;;
58553;SDS011;48119;53.218;6.576;2023-01-13T09:57:16;25.30;;;5.72;;
58553;SDS011;48119;53.218;6.576;2023-01-13T09:59:43;13.50;;;3.95;;
58553;SDS011;48119;53.218;6.576;2023-01-13T10:05:08;19.15;;;5.05;;
58553;SDS011;48119;53.218;6.576;2023-01-13T10:07:48;17.90;;;5.03;;
58553;SDS011;48119;53.218;6.576;2023-01-13T10:10:25;23.15;;;5.90;;
58553;SDS011;48119;53.218;6.576;2023-01-13T10:12:57;15.65;;;4.20;;
58553;SDS011;48119;53.218;6.576;2023-01-13T10:16:26;14.45;;;4.47;;
58553;SDS011;48119;53.218;6.576;2023-01-13T10:27:16;16.50;;;3.47;;
58553;SDS011;48119;53.218;6.576;2023-01-13T10:29:45;17.35;;;4.53;;
58553;SDS011;48119;53.218;6.576;2023-01-13T10:32:14;15.18;;;4.28;;
58553;SDS011;48119;53.218;6.576;2023-01-13T10:34:49;15.85;;;3.60;;
58553;SDS011;48119;53.218;6.576;2023-01-13T10:39:55;17.90;;;4.20;;
58553;SDS011;48119;53.218;6.576;2023-01-13T10:42:22;11.75;;;4.65;;
58553;SDS011;48119;53.218;6.576;2023-01-13T10:44:55;16.60;;;4.00;;
58553;SDS011;48119;53.218;6.576;2023-01-13T10:49:58;16.45;;;4.03;;
58553;SDS011;48119;53.218;6.576;2023-01-13T10:53:22;19.35;;;5.50;;
58553;SDS011;48119;53.218;6.576;2023-01-13T10:56:02;21.80;;;4.90;;
58553;SDS011;48119;53.218;6.576;2023-01-13T10:58:29;19.23;;;4.30;;
58553;SDS011;48119;53.218;6.576;2023-01-13T11:00:58;15.23;;;4.43;;
58553;SDS011;48119;53.218;6.576;2023-01-13T11:03:36;14.55;;;4.35;;
58553;SDS011;48119;53.218;6.576;2023-01-13T11:06:09;13.65;;;4.45;;
58553;SDS011;48119;53.218;6.576;2023-01-13T11:08:46;16.80;;;4.63;;
58553;SDS011;48119;53.218;6.576;2023-01-13T11:11:28;16.20;;;4.13;;
58553;SDS011;48119;53.218;6.576;2023-01-13T11:14:02;16.40;;;5.43;;
58553;SDS011;48119;53.218;6.576;2023-01-13T11:16:52;14.05;;;3.95;;
58553;SDS011;48119;53.218;6.576;2023-01-13T11:19:21;16.88;;;4.38;;
58553;SDS011;48119;53.218;6.576;2023-01-13T11:21:53;20.08;;;5.55;;
58553;SDS011;48119;53.218;6.576;2023-01-13T11:24:28;18.30;;;4.18;;
58553;SDS011;48119;53.218;6.576;2023-01-13T11:27:22;12.77;;;4.03;;
58553;SDS011;48119;53.218;6.576;2023-01-13T11:35:43;12.85;;;3.42;;
58553;SDS011;48119;53.218;6.576;2023-01-13T11:38:24;21.67;;;4.63;;
58553;SDS011;48119;53.218;6.576;2023-01-13T11:44:20;14.85;;;4.10;;
58553;SDS011;48119;53.218;6.576;2023-01-13T11:46:50;14.60;;;4.32;;
58553;SDS011;48119;53.218;6.576;2023-01-13T11:49:27;19.35;;;4.10;;
58553;SDS011;48119;53.218;6.576;2023-01-13T11:52:00;15.02;;;3.55;;
58553;SDS011;48119;53.218;6.576;2023-01-13T11:59:57;13.40;;;3.58;;
58553;SDS011;48119;53.218;6.576;2023-01-13T12:02:51;13.13;;;4.05;;
58553;SDS011;48119;53.218;6.576;2023-01-13T12:05:28;12.25;;;3.35;;
58553;SDS011;48119;53.218;6.576;2023-01-13T12:10:58;15.50;;;4.97;;
58553;SDS011;48119;53.218;6.576;2023-01-13T12:16:29;14.13;;;3.97;;
58553;SDS011;48119;53.218;6.576;2023-01-13T12:21:58;9.35;;;3.53;;
58553;SDS011;48119;53.218;6.576;2023-01-13T12:24:33;11.80;;;3.28;;
58553;SDS011;48119;53.218;6.576;2023-01-13T12:27:36;20.52;;;4.05;;
58553;SDS011;48119;53.218;6.576;2023-01-13T12:30:11;10.85;;;3.88;;
58553;SDS011;48119;53.218;6.576;2023-01-13T12:32:58;14.70;;;3.33;;
58553;SDS011;48119;53.218;6.576;2023-01-13T12:35:41;15.35;;;5.05;;
58553;SDS011;48119;53.218;6.576;2023-01-13T12:38:23;11.48;;;3.15;;
58553;SDS011;48119;53.218;6.576;2023-01-13T12:43:56;12.52;;;3.63;;
58553;SDS011;48119;53.218;6.576;2023-01-13T12:49:18;10.40;;;3.10;;
58553;SDS011;48119;53.218;6.576;2023-01-13T13:02:38;11.98;;;3.53;;
58553;SDS011;48119;53.218;6.576;2023-01-13T13:07:59;7.45;;;2.88;;
58553;SDS011;48119;53.218;6.576;2023-01-13T13:10:56;14.57;;;2.85;;
58553;SDS011;48119;53.218;6.576;2023-01-13T13:14:04;9.30;;;3.03;;
58553;SDS011;48119;53.218;6.576;2023-01-13T13:16:34;14.38;;;3.35;;
58553;SDS011;48119;53.218;6.576;2023-01-13T13:24:36;12.70;;;3.30;;
58553;SDS011;48119;53.218;6.576;2023-01-13T13:41:13;11.77;;;2.92;;
58553;SDS011;48119;53.218;6.576;2023-01-13T13:44:03;12.02;;;3.03;;
58553;SDS011;48119;53.218;6.576;2023-01-13T13:47:12;9.40;;;2.80;;
58553;SDS011;48119;53.218;6.576;2023-01-13T13:49:38;12.75;;;2.72;;
58553;SDS011;48119;53.218;6.576;2023-01-13T13:52:28;14.32;;;3.35;;
58553;SDS011;48119;53.218;6.576;2023-01-13T13:55:03;10.55;;;2.70;;
58553;SDS011;48119;53.218;6.576;2023-01-13T13:57:38;10.98;;;2.88;;
58553;SDS011;48119;53.218;6.576;2023-01-13T14:00:07;10.30;;;3.45;;
58553;SDS011;48119;53.218;6.576;2023-01-13T14:03:03;11.75;;;3.22;;
58553;SDS011;48119;53.218;6.576;2023-01-13T14:05:35;9.35;;;2.60;;
58553;SDS011;48119;53.218;6.576;2023-01-13T14:08:05;10.82;;;2.20;;
58553;SDS011;48119;53.218;6.576;2023-01-13T14:10:39;10.45;;;3.72;;
58553;SDS011;48119;53.218;6.576;2023-01-13T14:15:42;8.93;;;2.65;;
58553;SDS011;48119;53.218;6.576;2023-01-13T14:18:16;15.95;;;3.08;;
58553;SDS011;48119;53.218;6.576;2023-01-13T14:20:55;9.98;;;3.10;;
58553;SDS011;48119;53.218;6.576;2023-01-13T14:23:45;12.80;;;2.63;;
58553;SDS011;48119;53.218;6.576;2023-01-13T14:26:38;9.85;;;2.20;;
58553;SDS011;48119;53.218;6.576;2023-01-13T14:29:04;12.30;;;3.03;;
58553;SDS011;48119;53.218;6.576;2023-01-13T14:31:30;8.35;;;2.85;;
58553;SDS011;48119;53.218;6.576;2023-01-13T14:33:57;14.32;;;4.35;;
58553;SDS011;48119;53.218;6.576;2023-01-13T14:44:12;15.90;;;3.25;;
58553;SDS011;48119;53.218;6.576;2023-01-13T14:46:51;10.35;;;3.65;;
58553;SDS011;48119;53.218;6.576;2023-01-13T14:49:37;15.50;;;3.53;;
58553;SDS011;48119;53.218;6.576;2023-01-13T15:07:54;11.60;;;3.33;;
58553;SDS011;48119;53.218;6.576;2023-01-13T15:10:43;11.80;;;3.13;;
58553;SDS011;48119;53.218;6.576;2023-01-13T15:16:13;13.32;;;3.20;;
58553;SDS011;48119;53.218;6.576;2023-01-13T15:18:45;11.15;;;2.78;;
58553;SDS011;48119;53.218;6.576;2023-01-13T15:21:11;16.67;;;2.83;;
58553;SDS011;48119;53.218;6.576;2023-01-13T15:23:37;9.90;;;3.47;;
58553;SDS011;48119;53.218;6.576;2023-01-13T15:26:12;12.88;;;3.25;;
58553;SDS011;48119;53.218;6.576;2023-01-13T15:28:40;13.50;;;2.90;;
58553;SDS011;48119;53.218;6.576;2023-01-13T15:31:05;15.10;;;3.72;;
58553;SDS011;48119;53.218;6.576;2023-01-13T15:33:31;9.20;;;2.60;;
58553;SDS011;48119;53.218;6.576;2023-01-13T15:35:57;10.90;;;3.17;;
58553;SDS011;48119;53.218;6.576;2023-01-13T15:38:23;13.98;;;3.05;;
58553;SDS011;48119;53.218;6.576;2023-01-13T15:40:49;11.27;;;2.90;;
58553;SDS011;48119;53.218;6.576;2023-01-13T15:43:17;20.10;;;4.13;;
58553;SDS011;48119;53.218;6.576;2023-01-13T15:46:11;14.90;;;3.65;;
58553;SDS011;48119;53.218;6.576;2023-01-13T15:48:59;11.00;;;3.40;;
58553;SDS011;48119;53.218;6.576;2023-01-13T15:51:27;10.50;;;3.28;;
58553;SDS011;48119;53.218;6.576;2023-01-13T15:53:53;13.23;;;3.15;;
58553;SDS011;48119;53.218;6.576;2023-01-13T15:56:23;10.32;;;2.10;;
58553;SDS011;48119;53.218;6.576;2023-01-13T15:58:53;3.95;;;1.10;;
58553;SDS011;48119;53.218;6.576;2023-01-13T16:01:19;7.25;;;1.75;;
58553;SDS011;48119;53.218;6.576;2023-01-13T16:03:46;6.90;;;1.83;;
58553;SDS011;48119;53.218;6.576;2023-01-13T16:06:13;6.13;;;1.90;;
58553;SDS011;48119;53.218;6.576;2023-01-13T16:08:43;9.60;;;2.88;;
58553;SDS011;48119;53.218;6.576;2023-01-13T16:11:09;6.00;;;2.97;;
58553;SDS011;48119;53.218;6.576;2023-01-13T16:13:36;13.13;;;2.70;;
58553;SDS011;48119;53.218;6.576;2023-01-13T16:16:02;13.13;;;3.40;;
58553;SDS011;48119;53.218;6.576;2023-01-13T16:18:28;12.57;;;3.20;;
58553;SDS011;48119;53.218;6.576;2023-01-13T16:20:54;14.68;;;3.72;;
58553;SDS011;48119;53.218;6.576;2023-01-13T16:23:21;13.35;;;3.83;;
58553;SDS011;48119;53.218;6.576;2023-01-13T16:25:47;15.75;;;2.95;;
58553;SDS011;48119;53.218;6.576;2023-01-13T16:30:46;14.57;;;4.47;;
58553;SDS011;48119;53.218;6.576;2023-01-13T16:33:12;8.43;;;2.08;;
58553;SDS011;48119;53.218;6.576;2023-01-13T16:35:41;4.55;;;2.00;;
58553;SDS011;48119;53.218;6.576;2023-01-13T16:38:09;9.20;;;2.65;;
58553;SDS011;48119;53.218;6.576;2023-01-13T16:40:40;11.35;;;2.05;;
58553;SDS011;48119;53.218;6.576;2023-01-13T16:43:15;6.40;;;2.53;;
58553;SDS011;48119;53.218;6.576;2023-01-13T16:45:41;13.10;;;3.25;;
58553;SDS011;48119;53.218;6.576;2023-01-13T16:48:15;11.70;;;3.30;;
58553;SDS011;48119;53.218;6.576;2023-01-13T16:50:44;12.23;;;2.97;;
58553;SDS011;48119;53.218;6.576;2023-01-13T16:53:12;11.20;;;3.13;;
58553;SDS011;48119;53.218;6.576;2023-01-13T16:55:41;12.63;;;4.22;;
58553;SDS011;48119;53.218;6.576;2023-01-13T16:58:17;18.45;;;3.72;;
58553;SDS011;48119;53.218;6.576;2023-01-13T17:00:44;14.30;;;3.65;;
58553;SDS011;48119;53.218;6.576;2023-01-13T17:03:33;10.07;;;3.47;;
58553;SDS011;48119;53.218;6.576;2023-01-13T17:06:00;9.98;;;2.92;;
58553;SDS011;48119;53.218;6.576;2023-01-13T17:08:27;16.33;;;4.45;;
58553;SDS011;48119;53.218;6.576;2023-01-13T17:10:53;11.10;;;2.70;;
58553;SDS011;48119;53.218;6.576;2023-01-13T17:13:19;15.82;;;3.83;;
58553;SDS011;48119;53.218;6.576;2023-01-13T17:15:45;20.90;;;3.45;;
58553;SDS011;48119;53.218;6.576;2023-01-13T17:18:13;11.30;;;3.33;;
58553;SDS011;48119;53.218;6.576;2023-01-13T17:20:39;8.50;;;3.38;;
58553;SDS011;48119;53.218;6.576;2023-01-13T17:23:05;11.07;;;2.78;;
58553;SDS011;48119;53.218;6.576;2023-01-13T17:25:34;12.98;;;3.33;;
58553;SDS011;48119;53.218;6.576;2023-01-13T17:27:59;12.95;;;3.88;;
58553;SDS011;48119;53.218;6.576;2023-01-13T17:30:27;12.80;;;3.17;;
58553;SDS011;48119;53.218;6.576;2023-01-13T17:32:53;11.15;;;3.60;;
58553;SDS011;48119;53.218;6.576;2023-01-13T17:35:18;12.80;;;3.17;;
58553;SDS011;48119;53.218;6.576;2023-01-13T17:37:48;22.15;;;4.30;;
58553;SDS011;48119;53.218;6.576;2023-01-13T17:40:15;14.52;;;3.85;;
58553;SDS011;48119;53.218;6.576;2023-01-13T17:42:41;11.77;;;3.42;;